Time;durP1;ratioP1;P1;durP2;ratioP2;P2;SDS_P1;SDS_P2;PMS_P1;PMS_P2;Temp;Humidity;BMP_temperature;BMP_pressure;BME280_temperature;BME280_humidity;BME280_pressure;Samples;Min_cycle;Max_cycle;Signal;HPM_P1;HPM_P2
2022/10/31 00:01:37;;;;;;;12.35;7.03;;;14.70;99.90;;;;;;5092193;28;20176;-50
2022/10/31 00:04:04;;;;;;;10.07;5.85;;;14.70;99.90;;;;;;5092278;28;20547;-49
2022/10/31 00:06:30;;;;;;;13.48;7.93;;;14.70;99.90;;;;;;5092263;28;20229;-50
2022/10/31 00:09:01;;;;;;;12.32;6.90;;;14.70;99.90;;;;;;5091923;28;20253;-50
2022/10/31 00:11:27;;;;;;;13.10;6.93;;;14.70;99.90;;;;;;5091925;28;20169;-49
2022/10/31 00:13:53;;;;;;;11.05;6.40;;;14.60;99.90;;;;;;5091963;28;20196;-50
2022/10/31 00:16:21;;;;;;;15.13;7.30;;;14.60;99.90;;;;;;5091875;28;20218;-49
2022/10/31 00:18:51;;;;;;;14.60;7.00;;;14.60;99.90;;;;;;5091790;28;20204;-50
2022/10/31 00:21:17;;;;;;;19.25;7.65;;;14.60;99.90;;;;;;5096206;28;20165;-49
2022/10/31 00:23:42;;;;;;;14.23;7.25;;;14.60;99.90;;;;;;5098561;28;20230;-49
2022/10/31 00:26:08;;;;;;;11.93;6.95;;;14.70;99.90;;;;;;5098598;28;20200;-50
2022/10/31 00:28:34;;;;;;;16.90;6.93;;;14.60;99.90;;;;;;5098431;28;20183;-50
2022/10/31 00:31:05;;;;;;;14.93;7.43;;;14.70;99.90;;;;;;5098891;28;20161;-50
2022/10/31 00:33:33;;;;;;;18.65;7.93;;;14.60;99.90;;;;;;5098744;28;20222;-49
2022/10/31 00:35:59;;;;;;;15.52;6.95;;;14.60;99.90;;;;;;5099010;28;20543;-49
2022/10/31 00:38:25;;;;;;;18.65;7.68;;;14.60;99.90;;;;;;5098428;28;20157;-49
2022/10/31 00:40:50;;;;;;;18.88;7.95;;;14.60;99.90;;;;;;5098369;28;20173;-50
2022/10/31 00:43:16;;;;;;;13.90;7.00;;;14.60;99.90;;;;;;5098363;28;20169;-50
2022/10/31 00:45:42;;;;;;;15.90;8.23;;;14.60;99.90;;;;;;5098301;28;20169;-49
2022/10/31 00:48:08;;;;;;;19.73;8.38;;;14.60;99.90;;;;;;5098571;28;20169;-49
2022/10/31 00:50:34;;;;;;;16.77;7.38;;;14.60;99.90;;;;;;5098355;28;20200;-50
2022/10/31 00:53:00;;;;;;;14.55;7.85;;;14.70;99.90;;;;;;5098640;28;20222;-50
2022/10/31 00:55:25;;;;;;;16.30;8.00;;;14.70;99.90;;;;;;5079903;28;20672;-50
2022/10/31 00:57:51;;;;;;;11.18;7.40;;;14.70;99.90;;;;;;5098211;28;20170;-50
2022/10/31 01:00:17;;;;;;;14.20;7.10;;;14.70;99.90;;;;;;5079989;28;20331;-49
2022/10/31 01:02:42;;;;;;;13.35;7.72;;;14.70;99.90;;;;;;5098187;28;20290;-50
2022/10/31 01:05:08;;;;;;;19.25;8.68;;;14.60;99.90;;;;;;5098112;28;20535;-49
2022/10/31 01:07:40;;;;;;;15.52;8.70;;;14.70;99.90;;;;;;5097930;28;20740;-50
2022/10/31 01:10:06;;;;;;;15.00;7.85;;;14.70;99.90;;;;;;5098171;28;20169;-50
2022/10/31 01:12:44;;;;;;;21.17;8.15;;;14.60;99.90;;;;;;5098367;28;20173;-50
2022/10/31 01:15:11;;;;;;;16.38;8.82;;;14.60;99.90;;;;;;5098094;28;20200;-50
2022/10/31 01:17:37;;;;;;;21.08;8.02;;;14.60;99.90;;;;;;5097997;28;20157;-50
2022/10/31 01:20:05;;;;;;;17.73;8.55;;;14.60;99.90;;;;;;5080286;28;20636;-50
2022/10/31 01:22:30;;;;;;;15.50;8.23;;;14.60;99.90;;;;;;5098248;28;20226;-50
2022/10/31 01:24:56;;;;;;;17.02;7.93;;;14.60;99.90;;;;;;5097976;28;20165;-50
2022/10/31 01:27:21;;;;;;;21.05;9.18;;;14.60;99.90;;;;;;5097966;28;20161;-49
2022/10/31 01:29:47;;;;;;;15.43;8.48;;;14.60;99.90;;;;;;5097900;28;20161;-50
2022/10/31 01:32:12;;;;;;;16.90;8.18;;;14.50;99.90;;;;;;5095206;28;20177;-49
2022/10/31 01:34:38;;;;;;;15.75;8.57;;;14.50;99.90;;;;;;5094717;28;20205;-49
2022/10/31 01:37:03;;;;;;;20.92;8.45;;;14.40;99.90;;;;;;5094709;28;20174;-49
2022/10/31 01:39:29;;;;;;;17.58;8.55;;;14.40;99.90;;;;;;5094975;28;20177;-49
2022/10/31 01:41:55;;;;;;;20.00;8.57;;;14.40;99.90;;;;;;5094867;28;20169;-50
2022/10/31 01:44:20;;;;;;;18.90;9.30;;;14.40;99.90;;;;;;5094602;28;20166;-49
2022/10/31 01:46:53;;;;;;;17.55;10.30;;;14.30;99.90;;;;;;5094570;28;20252;-49
2022/10/31 01:49:39;;;;;;;21.42;8.77;;;14.40;99.90;;;;;;5094487;28;20169;-49
2022/10/31 01:52:13;;;;;;;16.95;9.30;;;14.30;99.90;;;;;;5094358;28;20494;-50
2022/10/31 01:54:42;;;;;;;16.50;8.70;;;14.30;99.90;;;;;;5094380;28;20204;-50
2022/10/31 01:57:12;;;;;;;17.05;8.52;;;14.40;99.90;;;;;;5094369;28;20173;-50
2022/10/31 01:59:43;;;;;;;22.42;8.70;;;14.30;99.90;;;;;;5094502;28;20223;-50
2022/10/31 02:02:10;;;;;;;14.20;8.60;;;14.40;99.90;;;;;;5094101;28;20213;-50
2022/10/31 02:04:36;;;;;;;16.77;8.20;;;14.30;99.90;;;;;;5094224;28;20173;-50
2022/10/31 02:07:10;;;;;;;14.73;8.13;;;14.30;99.90;;;;;;5094480;28;20172;-50
2022/10/31 02:09:37;;;;;;;14.77;8.02;;;14.40;99.90;;;;;;5094276;28;20173;-50
2022/10/31 02:12:04;;;;;;;16.02;8.55;;;14.30;99.90;;;;;;5094638;28;20585;-50
2022/10/31 02:14:31;;;;;;;20.13;8.73;;;14.30;99.90;;;;;;5094242;28;20201;-49
2022/10/31 02:16:57;;;;;;;15.80;9.38;;;14.30;99.90;;;;;;5093943;28;20753;-50
2022/10/31 02:19:40;;;;;;;12.73;7.70;;;14.20;99.90;;;;;;5093962;28;20174;-51
2022/10/31 02:22:23;;;;;;;14.23;7.85;;;14.20;99.90;;;;;;5075727;28;20207;-51
2022/10/31 02:25:03;;;;;;;18.70;10.07;;;14.20;99.90;;;;;;5093813;28;20255;-50
2022/10/31 02:27:41;;;;;;;14.25;7.70;;;14.20;99.90;;;;;;5094079;28;20602;-50
2022/10/31 02:30:23;;;;;;;12.82;7.97;;;14.20;99.90;;;;;;5093760;28;20661;-50
2022/10/31 02:33:15;;;;;;;12.45;8.10;;;14.10;99.90;;;;;;5093624;28;20166;-51
2022/10/31 02:36:11;;;;;;;16.90;8.50;;;14.10;99.90;;;;;;5093581;28;20237;-50
2022/10/31 02:38:52;;;;;;;12.07;7.88;;;14.10;99.90;;;;;;5093709;28;20162;-50
2022/10/31 02:41:35;;;;;;;19.30;8.02;;;14.10;99.90;;;;;;5093420;28;20161;-50
2022/10/31 02:44:21;;;;;;;13.77;8.10;;;14.00;99.90;;;;;;5075834;28;20179;-50
2022/10/31 02:46:48;;;;;;;13.57;7.53;;;14.00;99.90;;;;;;5093417;28;20180;-50
2022/10/31 02:49:40;;;;;;;14.02;7.10;;;14.00;99.90;;;;;;5093522;28;20192;-50
2022/10/31 02:52:25;;;;;;;19.92;8.60;;;13.90;99.90;;;;;;5093216;28;20169;-50
2022/10/31 02:54:50;;;;;;;16.70;8.95;;;14.10;99.90;;;;;;5093064;28;20205;-50
2022/10/31 02:57:22;;;;;;;15.38;8.20;;;14.00;99.90;;;;;;5093331;28;20188;-50
2022/10/31 02:59:58;;;;;;;17.70;8.70;;;14.00;99.90;;;;;;5093086;28;20263;-50
2022/10/31 03:02:33;;;;;;;15.88;8.00;;;13.90;99.90;;;;;;5092888;28;20239;-50
2022/10/31 03:05:10;;;;;;;21.60;9.07;;;13.90;99.90;;;;;;5093436;28;20222;-50
2022/10/31 03:07:35;;;;;;;14.95;8.70;;;13.90;99.90;;;;;;5093118;28;20169;-50
2022/10/31 03:10:36;;;;;;;15.02;8.10;;;13.90;99.90;;;;;;5093205;28;20649;-50
2022/10/31 03:13:08;;;;;;;12.73;7.72;;;13.80;99.90;;;;;;5093225;28;20651;-50
2022/10/31 03:15:37;;;;;;;13.93;7.55;;;13.80;99.90;;;;;;5092954;28;20627;-50
2022/10/31 03:18:21;;;;;;;17.13;7.75;;;13.70;99.90;;;;;;5093078;28;20528;-50
2022/10/31 03:21:22;;;;;;;19.95;8.93;;;13.80;99.90;;;;;;5092822;28;20162;-50
2022/10/31 03:23:50;;;;;;;20.27;8.27;;;13.70;99.90;;;;;;5084325;28;20176;-50
2022/10/31 03:26:17;;;;;;;15.18;8.50;;;13.80;99.90;;;;;;5092671;28;20175;-50
2022/10/31 03:28:57;;;;;;;14.23;7.72;;;13.80;99.90;;;;;;5092510;28;20166;-50
2022/10/31 03:31:29;;;;;;;17.45;8.63;;;13.80;99.90;;;;;;5092813;28;20177;-50
2022/10/31 03:33:59;;;;;;;20.70;8.30;;;13.80;99.90;;;;;;5092653;28;20302;-51
2022/10/31 03:36:27;;;;;;;21.25;9.18;;;13.80;99.90;;;;;;5074514;28;20256;-50
2022/10/31 03:38:54;;;;;;;15.93;9.23;;;13.90;99.90;;;;;;5092679;28;20558;-49
2022/10/31 03:41:23;;;;;;;15.60;8.55;;;13.90;99.90;;;;;;5092409;28;20173;-49
2022/10/31 03:43:59;;;;;;;19.23;10.15;;;13.90;99.90;;;;;;5092595;28;20212;-49
2022/10/31 03:46:25;;;;;;;15.13;9.73;;;13.80;99.90;;;;;;5092288;28;20161;-49
2022/10/31 03:48:51;;;;;;;15.05;10.02;;;13.80;99.90;;;;;;5092191;28;20172;-50
2022/10/31 03:51:19;;;;;;;20.77;10.15;;;13.80;99.90;;;;;;5091729;28;20223;-49
2022/10/31 03:53:54;;;;;;;15.38;10.07;;;13.80;99.90;;;;;;5092085;28;20157;-49
2022/10/31 03:56:37;;;;;;;22.00;10.35;;;13.70;99.90;;;;;;5091389;28;20200;-49
2022/10/31 03:59:13;;;;;;;21.40;9.32;;;13.80;99.90;;;;;;5073924;28;20165;-49
2022/10/31 04:01:44;;;;;;;23.80;9.93;;;13.70;99.90;;;;;;5091930;28;20222;-49
2022/10/31 04:04:11;;;;;;;24.10;14.02;;;13.70;99.90;;;;;;5092103;28;20165;-49
2022/10/31 04:06:38;;;;;;;43.72;24.92;;;13.70;99.90;;;;;;5092033;28;20201;-49
2022/10/31 04:09:07;;;;;;;33.97;21.67;;;13.70;99.90;;;;;;5091904;28;20256;-50
2022/10/31 04:11:42;;;;;;;31.92;16.77;;;13.70;99.90;;;;;;5092171;28;20218;-49
2022/10/31 04:14:10;;;;;;;26.08;14.55;;;13.70;99.90;;;;;;5091730;28;20530;-49
2022/10/31 04:16:38;;;;;;;23.83;13.35;;;13.70;99.90;;;;;;5091904;28;20184;-49
2022/10/31 04:19:04;;;;;;;26.73;15.50;;;13.60;99.90;;;;;;5091910;28;20161;-49
2022/10/31 04:21:30;;;;;;;22.05;14.55;;;13.60;99.90;;;;;;5092169;28;20188;-49
2022/10/31 04:23:56;;;;;;;21.63;12.90;;;13.60;99.90;;;;;;5091894;28;20169;-49
2022/10/31 04:26:22;;;;;;;33.28;17.48;;;13.60;99.90;;;;;;5073591;28;20180;-49
2022/10/31 04:28:48;;;;;;;54.60;26.58;;;13.50;99.90;;;;;;5092000;28;20169;-49
2022/10/31 04:31:14;;;;;;;69.28;31.45;;;13.60;99.90;;;;;;5091721;28;20557;-49
2022/10/31 04:33:39;;;;;;;66.40;30.45;;;13.50;99.90;;;;;;5091835;28;20166;-49
2022/10/31 04:36:05;;;;;;;41.13;21.88;;;13.70;99.90;;;;;;5091816;28;20558;-49
2022/10/31 04:38:31;;;;;;;40.25;20.58;;;13.60;99.90;;;;;;5091961;28;20176;-50
2022/10/31 04:40:56;;;;;;;29.85;17.65;;;13.50;99.90;;;;;;5091613;28;20252;-49
2022/10/31 04:43:22;;;;;;;40.40;21.90;;;13.50;99.90;;;;;;5091577;28;20169;-49
2022/10/31 04:45:47;;;;;;;35.20;19.17;;;13.50;99.90;;;;;;5091572;28;20181;-49
2022/10/31 04:48:13;;;;;;;30.88;16.80;;;13.40;99.90;;;;;;5091686;28;20211;-50
2022/10/31 04:50:39;;;;;;;34.17;16.52;;;13.40;99.90;;;;;;5091541;28;20173;-49
2022/10/31 04:53:05;;;;;;;28.50;13.73;;;13.40;99.90;;;;;;5091650;28;20206;-50
2022/10/31 04:55:30;;;;;;;24.40;12.45;;;13.40;99.90;;;;;;5091843;28;20198;-49
2022/10/31 04:57:56;;;;;;;25.00;12.25;;;13.30;99.90;;;;;;5091632;28;20168;-50
2022/10/31 05:00:23;;;;;;;16.65;9.85;;;13.30;99.90;;;;;;5091504;28;20532;-50
2022/10/31 05:02:54;;;;;;;22.48;12.00;;;13.20;99.90;;;;;;5091417;28;20212;-50
2022/10/31 05:05:24;;;;;;;19.63;9.60;;;13.20;99.90;;;;;;5091694;28;20181;-50
2022/10/31 05:07:51;;;;;;;20.05;10.57;;;13.20;99.90;;;;;;5094406;28;20168;-50
2022/10/31 05:10:19;;;;;;;16.70;10.98;;;13.20;99.90;;;;;;5095566;28;20560;-50
2022/10/31 05:12:49;;;;;;;19.42;10.07;;;13.20;99.90;;;;;;5095605;28;20208;-50
2022/10/31 05:15:16;;;;;;;16.13;9.73;;;13.20;99.90;;;;;;5095148;28;20209;-50
2022/10/31 05:17:43;;;;;;;22.25;9.90;;;13.20;99.90;;;;;;5095149;28;20238;-50
2022/10/31 05:20:09;;;;;;;15.07;9.07;;;13.20;99.90;;;;;;5095094;28;20169;-51
2022/10/31 05:22:36;;;;;;;15.75;9.40;;;13.20;99.90;;;;;;5094967;28;20165;-50
2022/10/31 05:25:01;;;;;;;19.67;10.65;;;13.10;99.90;;;;;;5095327;28;20165;-50
2022/10/31 05:27:27;;;;;;;19.02;9.45;;;13.00;99.90;;;;;;5095294;28;20648;-51
2022/10/31 05:29:52;;;;;;;18.10;8.20;;;13.10;99.90;;;;;;5094869;28;20580;-50
2022/10/31 05:32:18;;;;;;;13.25;8.40;;;13.10;99.90;;;;;;5094875;28;20158;-51
2022/10/31 05:34:43;;;;;;;18.35;8.98;;;13.00;99.90;;;;;;5094741;28;20193;-50
2022/10/31 05:37:09;;;;;;;19.83;8.30;;;12.90;99.90;;;;;;5094728;28;20170;-50
2022/10/31 05:39:34;;;;;;;20.15;8.93;;;13.00;99.90;;;;;;5094653;28;20161;-50
2022/10/31 05:42:00;;;;;;;18.20;9.23;;;13.00;99.90;;;;;;5095002;28;20256;-50
2022/10/31 05:44:25;;;;;;;14.52;8.52;;;12.90;99.90;;;;;;5094610;28;20168;-50
2022/10/31 05:46:51;;;;;;;21.88;10.45;;;12.90;99.90;;;;;;5094547;28;20177;-50
2022/10/31 05:49:17;;;;;;;16.75;9.02;;;13.00;99.90;;;;;;5094769;28;20193;-49
2022/10/31 05:51:42;;;;;;;21.40;9.10;;;12.90;99.90;;;;;;5076339;28;20169;-51
2022/10/31 05:54:08;;;;;;;12.18;7.43;;;12.90;99.90;;;;;;5094386;28;20193;-50
2022/10/31 05:56:33;;;;;;;12.18;8.32;;;13.00;99.90;;;;;;5094303;28;20169;-50
2022/10/31 05:58:59;;;;;;;16.23;8.88;;;13.00;99.90;;;;;;5094768;28;20668;-50
2022/10/31 06:01:25;;;;;;;15.38;8.55;;;12.90;99.90;;;;;;5094052;28;20189;-50
2022/10/31 06:03:50;;;;;;;16.40;9.48;;;13.00;99.90;;;;;;5094045;28;20204;-49
2022/10/31 06:06:16;;;;;;;13.90;8.82;;;13.00;99.90;;;;;;5094005;28;20503;-50
2022/10/31 06:08:41;;;;;;;16.92;8.57;;;12.90;99.90;;;;;;5075984;28;20165;-50
2022/10/31 06:11:07;;;;;;;14.98;7.97;;;13.00;99.90;;;;;;5094085;28;20173;-49
2022/10/31 06:13:32;;;;;;;16.08;8.15;;;13.00;99.90;;;;;;5075895;28;20170;-50
2022/10/31 06:15:58;;;;;;;12.38;8.00;;;13.00;99.90;;;;;;5094303;28;20241;-50
2022/10/31 06:18:23;;;;;;;21.15;8.63;;;13.00;99.90;;;;;;5093275;28;20161;-49
2022/10/31 06:20:49;;;;;;;15.65;8.40;;;12.90;99.90;;;;;;5093917;28;20222;-50
2022/10/31 06:23:15;;;;;;;13.13;7.63;;;12.90;99.90;;;;;;5093847;28;20161;-50
2022/10/31 06:25:40;;;;;;;15.93;7.75;;;12.90;99.90;;;;;;5093779;28;20667;-50
2022/10/31 06:28:06;;;;;;;14.73;7.45;;;12.90;99.90;;;;;;5075343;28;20548;-50
2022/10/31 06:30:31;;;;;;;15.32;8.07;;;12.80;99.90;;;;;;5092968;28;20169;-50
2022/10/31 06:33:04;;;;;;;12.70;7.25;;;12.80;99.90;;;;;;5093155;28;20237;-50
2022/10/31 06:35:30;;;;;;;15.90;8.10;;;12.90;99.90;;;;;;5092268;28;20205;-50
2022/10/31 06:37:56;;;;;;;13.15;7.80;;;12.80;99.90;;;;;;5092765;28;20200;-49
2022/10/31 06:40:22;;;;;;;15.13;8.25;;;12.80;99.90;;;;;;5092762;28;20197;-50
2022/10/31 06:42:55;;;;;;;14.07;7.53;;;12.80;99.90;;;;;;5092748;28;20154;-50
2022/10/31 06:45:20;;;;;;;15.02;7.53;;;12.80;99.90;;;;;;5092933;28;20162;-50
2022/10/31 06:47:54;;;;;;;10.52;6.70;;;12.70;99.90;;;;;;5093313;28;20178;-50
2022/10/31 06:50:20;;;;;;;11.18;7.15;;;12.80;99.90;;;;;;5093389;28;20176;-49
2022/10/31 06:52:58;;;;;;;16.95;7.72;;;12.80;99.90;;;;;;5093253;28;20165;-50
2022/10/31 06:55:25;;;;;;;22.20;8.95;;;12.80;99.90;;;;;;5093003;28;20254;-49
2022/10/31 06:57:59;;;;;;;18.40;8.18;;;12.90;99.90;;;;;;5093135;28;20161;-50
2022/10/31 07:00:28;;;;;;;20.05;11.00;;;12.80;99.90;;;;;;5074909;28;20640;-50
2022/10/31 07:02:54;;;;;;;12.52;8.00;;;12.90;99.90;;;;;;5092883;28;20581;-50
2022/10/31 07:05:20;;;;;;;20.27;8.90;;;12.90;99.90;;;;;;5093262;28;20643;-49
2022/10/31 07:07:46;;;;;;;28.23;12.40;;;12.90;99.90;;;;;;5075104;28;20256;-49
2022/10/31 07:10:11;;;;;;;25.85;10.60;;;12.90;99.90;;;;;;5091439;28;20291;-51
2022/10/31 07:12:37;;;;;;;19.02;7.30;;;13.00;99.90;;;;;;5091653;28;20173;-49
2022/10/31 07:15:03;;;;;;;19.73;9.00;;;13.00;99.90;;;;;;5090924;28;20204;-50
2022/10/31 07:17:29;;;;;;;18.17;8.68;;;13.00;99.90;;;;;;5091603;28;20219;-49
2022/10/31 07:19:54;;;;;;;12.07;7.68;;;13.10;99.90;;;;;;5091291;28;20633;-51
2022/10/31 07:22:20;;;;;;;16.65;7.60;;;13.10;99.90;;;;;;5091291;28;20570;-55
2022/10/31 07:24:46;;;;;;;13.05;7.90;;;13.10;99.90;;;;;;5091272;28;20640;-51
2022/10/31 07:27:11;;;;;;;15.43;7.22;;;13.10;99.90;;;;;;5090913;28;20165;-52
2022/10/31 07:29:37;;;;;;;14.05;7.40;;;13.00;99.90;;;;;;5108237;28;20475;-51
2022/10/31 07:32:03;;;;;;;16.20;8.63;;;13.10;99.90;;;;;;5110899;28;20192;-54
2022/10/31 07:34:28;;;;;;;30.10;12.35;;;13.10;99.90;;;;;;5111710;28;20208;-52
2022/10/31 07:36:54;;;;;;;15.23;7.63;;;13.10;99.90;;;;;;5111215;28;20251;-48
2022/10/31 07:39:19;;;;;;;10.70;7.00;;;13.10;99.90;;;;;;5111235;28;20200;-51
2022/10/31 07:41:45;;;;;;;22.40;8.23;;;13.10;99.90;;;;;;5111285;28;20239;-50
2022/10/31 07:44:10;;;;;;;20.00;8.60;;;13.20;99.90;;;;;;5110946;28;20203;-51
2022/10/31 07:46:36;;;;;;;14.10;7.80;;;13.20;99.90;;;;;;5111448;28;20281;-50
2022/10/31 07:49:02;;;;;;;26.40;10.95;;;13.30;99.90;;;;;;5110952;28;20180;-49
2022/10/31 07:51:27;;;;;;;17.63;8.73;;;13.40;99.90;;;;;;5111374;28;20165;-50
2022/10/31 07:53:53;;;;;;;16.98;9.80;;;13.40;99.90;;;;;;5110666;28;20161;-52
2022/10/31 07:56:18;;;;;;;25.63;11.43;;;13.50;99.90;;;;;;5110859;28;20181;-52
2022/10/31 07:58:44;;;;;;;16.30;9.45;;;13.50;99.90;;;;;;5110827;28;20164;-52
2022/10/31 08:01:09;;;;;;;16.40;7.68;;;13.60;99.90;;;;;;5111102;28;20172;-52
2022/10/31 08:03:35;;;;;;;31.40;10.60;;;13.60;99.90;;;;;;5110770;28;20267;-52
2022/10/31 08:06:00;;;;;;;14.07;8.77;;;13.60;99.90;;;;;;5111210;28;20172;-52
2022/10/31 08:08:27;;;;;;;19.20;11.40;;;13.60;99.90;;;;;;5111203;28;20172;-52
2022/10/31 08:10:54;;;;;;;18.13;8.23;;;13.70;99.90;;;;;;5092461;28;20172;-52
2022/10/31 08:13:19;;;;;;;17.40;8.35;;;13.70;99.90;;;;;;5111021;28;20176;-52
2022/10/31 08:15:49;;;;;;;16.20;8.32;;;13.80;99.90;;;;;;5110566;28;20200;-52
2022/10/31 08:18:15;;;;;;;24.13;9.68;;;13.80;99.90;;;;;;5110952;28;20209;-52
2022/10/31 08:20:42;;;;;;;22.25;8.85;;;13.90;99.90;;;;;;5110645;28;20168;-52
2022/10/31 08:23:10;;;;;;;21.33;9.57;;;13.90;99.90;;;;;;5110816;28;20596;-52
2022/10/31 08:25:36;;;;;;;14.43;7.72;;;14.00;99.90;;;;;;5110595;28;20164;-52
2022/10/31 08:28:02;;;;;;;18.42;8.48;;;14.00;99.90;;;;;;5108738;28;20538;-52
2022/10/31 08:30:29;;;;;;;11.57;7.45;;;14.10;99.90;;;;;;5090586;28;20245;-52
2022/10/31 08:33:08;;;;;;;17.17;8.60;;;14.00;99.90;;;;;;5089943;28;20222;-52
2022/10/31 08:35:33;;;;;;;19.65;8.25;;;14.10;99.90;;;;;;5090050;28;20212;-52
2022/10/31 08:38:00;;;;;;;14.27;7.78;;;14.10;99.90;;;;;;5090724;28;20174;-52
2022/10/31 08:40:27;;;;;;;11.68;7.38;;;14.20;99.90;;;;;;5090528;28;20165;-52
2022/10/31 08:43:04;;;;;;;15.65;8.77;;;14.20;99.90;;;;;;5093345;28;20674;-53
2022/10/31 08:45:32;;;;;;;19.77;9.48;;;14.30;99.90;;;;;;5094581;28;20164;-52
2022/10/31 08:48:01;;;;;;;17.58;8.93;;;14.30;99.90;;;;;;5094778;28;20169;-52
2022/10/31 08:50:28;;;;;;;17.90;8.90;;;14.40;99.90;;;;;;5094534;28;20173;-52
2022/10/31 08:52:59;;;;;;;18.65;9.35;;;14.40;99.90;;;;;;5094078;28;20183;-52
2022/10/31 08:55:24;;;;;;;15.52;10.13;;;14.50;99.90;;;;;;5093918;28;20220;-52
2022/10/31 08:57:58;;;;;;;16.95;10.20;;;14.50;99.90;;;;;;5094051;28;20197;-52
2022/10/31 09:00:24;;;;;;;18.33;9.15;;;14.60;99.90;;;;;;5094225;28;20216;-52
2022/10/31 09:02:57;;;;;;;14.10;8.23;;;14.80;99.90;;;;;;5093840;28;20626;-52
2022/10/31 09:05:23;;;;;;;13.05;8.75;;;14.70;99.90;;;;;;5094077;28;20578;-52
2022/10/31 09:07:48;;;;;;;17.42;8.70;;;14.80;99.90;;;;;;5093900;28;20231;-52
2022/10/31 09:10:14;;;;;;;20.58;9.35;;;14.80;99.90;;;;;;5094009;28;20177;-52
2022/10/31 09:12:41;;;;;;;17.35;9.65;;;14.90;99.90;;;;;;5093811;28;20165;-52
2022/10/31 09:15:07;;;;;;;18.08;9.13;;;14.90;99.90;;;;;;5093617;28;20201;-52
2022/10/31 09:17:32;;;;;;;16.23;8.90;;;15.00;99.90;;;;;;5093634;28;20169;-52
2022/10/31 09:19:58;;;;;;;23.85;8.77;;;14.90;99.90;;;;;;5094246;28;20170;-52
2022/10/31 09:22:23;;;;;;;18.13;8.85;;;15.00;99.90;;;;;;5093631;28;20248;-52
2022/10/31 09:24:49;;;;;;;12.45;8.05;;;15.10;99.90;;;;;;5093599;28;20195;-53
2022/10/31 09:27:15;;;;;;;14.48;7.90;;;15.00;99.90;;;;;;5093564;28;20161;-52
2022/10/31 09:29:40;;;;;;;21.27;7.68;;;15.10;99.90;;;;;;5093330;28;20174;-52
2022/10/31 09:32:06;;;;;;;12.07;7.57;;;15.30;99.90;;;;;;5093388;28;20306;-52
2022/10/31 09:34:31;;;;;;;12.48;7.07;;;15.40;99.90;;;;;;5093266;28;20212;-52
2022/10/31 09:36:57;;;;;;;19.67;7.90;;;15.40;99.90;;;;;;5094070;28;20165;-52
2022/10/31 09:39:22;;;;;;;13.05;7.50;;;15.50;99.90;;;;;;5093248;28;20169;-52
2022/10/31 09:42:13;;;;;;;10.32;6.80;;;15.60;99.90;;;;;;5093459;28;20173;-52
2022/10/31 09:45:03;;;;;;;10.90;7.22;;;15.50;99.90;;;;;;5075019;28;20641;-52
2022/10/31 09:48:08;;;;;;;12.48;7.38;;;15.50;99.90;;;;;;5093496;28;20172;-52
2022/10/31 09:50:48;;;;;;;26.27;8.55;;;15.50;99.90;;;;;;5093064;28;20523;-52
2022/10/31 09:53:35;;;;;;;14.68;6.70;;;15.50;99.90;;;;;;5091902;28;20170;-52
2022/10/31 09:56:05;;;;;;;11.50;7.47;;;15.60;99.90;;;;;;5103295;28;20614;-52
2022/10/31 09:58:34;;;;;;;13.43;7.03;;;15.70;99.90;;;;;;5113392;28;20246;-52
2022/10/31 10:01:02;;;;;;;14.73;7.47;;;15.70;99.90;;;;;;5113191;28;20172;-52
2022/10/31 10:03:49;;;;;;;13.65;8.05;;;15.80;99.90;;;;;;5113414;28;20261;-52
2022/10/31 10:06:19;;;;;;;19.20;8.60;;;15.80;99.90;;;;;;5113077;28;20165;-52
2022/10/31 10:08:44;;;;;;;18.90;9.23;;;15.80;99.90;;;;;;5113668;28;20548;-52
2022/10/31 10:11:28;;;;;;;14.30;8.60;;;16.00;99.90;;;;;;5113318;28;20278;-52
2022/10/31 10:14:20;;;;;;;15.63;7.82;;;16.00;99.90;;;;;;5112909;28;20515;-51
2022/10/31 10:16:55;;;;;;;20.58;8.88;;;16.00;99.90;;;;;;5112815;28;20329;-52
2022/10/31 10:19:21;;;;;;;19.88;9.23;;;16.00;99.90;;;;;;5113043;28;20575;-52
2022/10/31 10:22:11;;;;;;;16.73;8.80;;;16.00;99.90;;;;;;5094583;28;20238;-52
2022/10/31 10:24:55;;;;;;;16.63;9.35;;;16.00;99.90;;;;;;5112579;28;20163;-52
2022/10/31 10:27:46;;;;;;;15.98;7.35;;;16.10;99.90;;;;;;5112283;28;20176;-52
2022/10/31 10:30:20;;;;;;;12.48;7.68;;;16.10;99.90;;;;;;5112417;28;20176;-52
2022/10/31 10:32:50;;;;;;;14.20;8.30;;;16.20;99.90;;;;;;5112186;28;20650;-52
2022/10/31 10:35:31;;;;;;;12.75;7.63;;;16.40;99.90;;;;;;5094189;28;20208;-52
2022/10/31 10:38:18;;;;;;;13.52;8.93;;;16.40;99.90;;;;;;5094484;28;20259;-52
2022/10/31 10:40:44;;;;;;;15.38;7.75;;;16.50;99.90;;;;;;5111635;28;20184;-52
2022/10/31 10:43:23;;;;;;;15.93;8.25;;;16.70;99.90;;;;;;5094109;28;20205;-52
2022/10/31 10:49:03;;;;;;;20.23;12.25;;;17.10;99.90;;;;;;5112599;28;20221;-52
2022/10/31 10:51:54;;;;;;;20.35;8.95;;;17.10;99.90;;;;;;5094432;28;20175;-52
2022/10/31 10:54:41;;;;;;;22.45;10.52;;;17.20;99.90;;;;;;5112271;28;20200;-52
2022/10/31 10:57:26;;;;;;;16.23;9.13;;;17.30;99.90;;;;;;5112327;28;20164;-52
2022/10/31 10:59:52;;;;;;;13.52;7.07;;;17.40;99.90;;;;;;5112234;28;20168;-52
2022/10/31 11:02:24;;;;;;;14.65;6.82;;;17.60;99.90;;;;;;5111896;28;20269;-52
2022/10/31 11:04:54;;;;;;;13.75;7.50;;;17.50;99.90;;;;;;5111788;28;20169;-52
2022/10/31 11:07:20;;;;;;;15.38;7.03;;;17.60;99.90;;;;;;5112046;28;20208;-52
2022/10/31 11:09:46;;;;;;;15.40;6.78;;;17.60;99.90;;;;;;5111945;28;20199;-52
2022/10/31 11:12:27;;;;;;;12.18;5.93;;;17.80;99.90;;;;;;5112091;28;20561;-52
2022/10/31 11:14:59;;;;;;;13.82;6.25;;;17.70;99.90;;;;;;5111837;28;20196;-52
2022/10/31 11:17:31;;;;;;;8.73;5.72;;;17.80;99.90;;;;;;5111905;28;20527;-52
2022/10/31 11:20:04;;;;;;;17.30;6.07;;;17.70;99.90;;;;;;5112154;28;20169;-52
2022/10/31 11:22:30;;;;;;;15.32;7.88;;;17.70;99.90;;;;;;5112072;28;20168;-52
2022/10/31 11:24:56;;;;;;;17.15;8.27;;;17.90;99.90;;;;;;5111952;28;20167;-52
2022/10/31 11:27:23;;;;;;;10.63;6.20;;;18.10;99.90;;;;;;5111696;28;20173;-52
2022/10/31 11:29:50;;;;;;;15.52;6.53;;;18.10;99.90;;;;;;5111505;28;20157;-52
2022/10/31 11:32:24;;;;;;;33.85;17.38;;;18.00;99.90;;;;;;5111548;28;20205;-52
2022/10/31 11:34:57;;;;;;;21.67;11.18;;;18.10;99.90;;;;;;5111386;28;20195;-53
2022/10/31 11:37:26;;;;;;;12.18;6.70;;;18.10;99.90;;;;;;5111239;28;20195;-52
2022/10/31 11:40:06;;;;;;;23.80;7.88;;;18.10;99.90;;;;;;5111255;28;20168;-52
2022/10/31 11:42:42;;;;;;;12.48;5.85;;;18.00;99.90;;;;;;5111113;28;20279;-52
2022/10/31 11:45:28;;;;;;;15.35;8.18;;;18.10;99.90;;;;;;5093030;28;20156;-52
2022/10/31 11:47:56;;;;;;;19.77;8.55;;;18.20;99.90;;;;;;5111237;28;20165;-53
2022/10/31 11:50:26;;;;;;;15.60;6.63;;;18.10;99.90;;;;;;5111102;28;20655;-52
2022/10/31 11:52:53;;;;;;;12.77;6.03;;;18.10;99.90;;;;;;5111120;28;20165;-52
2022/10/31 11:55:39;;;;;;;21.02;9.98;;;18.10;99.90;;;;;;5110983;28;20208;-52
2022/10/31 11:58:23;;;;;;;11.02;5.68;;;18.20;99.90;;;;;;5111027;28;20831;-52
2022/10/31 12:00:51;;;;;;;13.75;6.55;;;18.10;99.90;;;;;;5110966;28;20173;-52
2022/10/31 12:03:26;;;;;;;12.65;5.00;;;18.10;99.90;;;;;;5110425;28;20213;-53
2022/10/31 12:06:06;;;;;;;10.73;5.25;;;18.10;99.90;;;;;;5110815;28;20169;-52
2022/10/31 12:08:35;;;;;;;13.10;5.90;;;18.20;99.90;;;;;;5110949;28;20477;-52
2022/10/31 12:11:29;;;;;;;20.98;16.10;;;18.40;99.90;;;;;;5110629;28;20184;-52
2022/10/31 12:14:17;;;;;;;13.23;5.07;;;18.40;99.90;;;;;;5110707;28;20531;-53
2022/10/31 12:17:05;;;;;;;12.68;5.32;;;18.30;99.90;;;;;;5110017;28;20180;-52
2022/10/31 12:19:59;;;;;;;13.65;5.28;;;18.40;99.90;;;;;;5110666;28;20528;-52
2022/10/31 12:22:36;;;;;;;9.60;5.18;;;18.30;99.90;;;;;;5111064;28;20160;-52
2022/10/31 12:25:34;;;;;;;11.80;5.35;;;18.10;99.90;;;;;;5110633;28;20912;-52
2022/10/31 12:28:35;;;;;;;11.65;5.10;;;18.00;99.90;;;;;;5110659;28;20165;-52
2022/10/31 12:31:32;;;;;;;6.40;4.93;;;18.00;99.90;;;;;;5037405;28;20183;-52
2022/10/31 12:34:02;;;;;;;14.25;5.53;;;18.00;99.90;;;;;;5105079;28;20263;-53
2022/10/31 12:36:32;;;;;;;13.80;5.50;;;18.00;99.90;;;;;;5110863;28;20176;-53
2022/10/31 12:39:06;;;;;;;14.05;5.55;;;17.90;99.90;;;;;;5110538;28;20192;-52
2022/10/31 12:41:43;;;;;;;15.27;5.60;;;17.90;99.90;;;;;;5110720;28;20180;-52
2022/10/31 12:44:33;;;;;;;10.98;5.20;;;17.90;99.90;;;;;;5098182;28;20177;-52
2022/10/31 12:47:09;;;;;;;12.40;5.93;;;17.90;99.90;;;;;;5090461;28;20161;-52
2022/10/31 12:50:02;;;;;;;11.63;5.20;;;17.80;99.90;;;;;;5090254;28;20173;-52
2022/10/31 12:53:06;;;;;;;8.35;5.20;;;17.70;99.90;;;;;;5089868;28;20218;-51
2022/10/31 12:55:44;;;;;;;10.13;4.90;;;17.70;99.90;;;;;;5089841;28;20953;-51
2022/10/31 12:58:24;;;;;;;15.50;5.70;;;17.70;99.90;;;;;;5089705;28;20162;-51